Terminal Aerodrome Forecast
Issued by NWS

Home | Current Version | Previous Version | Text Only | Print | Product List | Glossary On
Versions: 1 2 3 4 5 6 7 8 9 10 11 12 13 14 15 16 17 18 19 20 21 22
860
FTUS41 KOKX 291603 AAB
TAFSWF
TAF AMD
KSWF 291603Z 2916/3018 12007KT 5SM -RA BR BKN008 OVC015
      TEMPO 2916/2917 2SM SHRA
     FM291700 12007KT 5SM -DZ BR OVC015
      TEMPO 2917/2919 OVC008
     FM292300 VRB04KT 5SM BR OVC015
     FM300600 16005KT 5SM BR OVC006
     FM301300 17004KT 5SM BR OVC008
     FM301600 18005KT 6SM BR BKN015
      AMD NOT SKED=

USA.gov is the U.S. government's official web portal to all federal, state and local government web resources and services.